sensor_id;sensor_type;location;lat;lon;timestamp;temperature;humidity
35680;DHT22;21803;53.586;10.040;2023-08-20T04:02:48;26.20;59.80
35680;DHT22;21803;53.586;10.040;2023-08-20T04:05:14;26.20;59.80
35680;DHT22;21803;53.586;10.040;2023-08-20T04:07:39;26.20;59.80
35680;DHT22;21803;53.586;10.040;2023-08-20T04:10:05;26.20;59.80
35680;DHT22;21803;53.586;10.040;2023-08-20T04:12:32;26.20;59.70
35680;DHT22;21803;53.586;10.040;2023-08-20T04:14:58;26.20;59.70
35680;DHT22;21803;53.586;10.040;2023-08-20T04:17:23;26.00;59.60
35680;DHT22;21803;53.586;10.040;2023-08-20T04:19:49;26.20;60.40
35680;DHT22;21803;53.586;10.040;2023-08-20T04:22:15;26.20;59.70
35680;DHT22;21803;53.586;10.040;2023-08-20T04:24:40;26.20;60.40
35680;DHT22;21803;53.586;10.040;2023-08-20T04:27:06;26.20;59.70
35680;DHT22;21803;53.586;10.040;2023-08-20T04:29:32;26.20;59.70
35680;DHT22;21803;53.586;10.040;2023-08-20T04:31:58;26.20;59.70
35680;DHT22;21803;53.586;10.040;2023-08-20T04:34:23;26.20;59.70
35680;DHT22;21803;53.586;10.040;2023-08-20T04:36:49;26.20;59.70
35680;DHT22;21803;53.586;10.040;2023-08-20T04:39:14;26.30;59.70
35680;DHT22;21803;53.586;10.040;2023-08-20T04:41:40;26.10;59.60
35680;DHT22;21803;53.586;10.040;2023-08-20T04:44:05;26.20;59.70
35680;DHT22;21803;53.586;10.040;2023-08-20T04:46:31;26.20;59.60
35680;DHT22;21803;53.586;10.040;2023-08-20T04:48:56;26.30;59.70
35680;DHT22;21803;53.586;10.040;2023-08-20T04:51:22;26.10;59.60
35680;DHT22;21803;53.586;10.040;2023-08-20T04:53:47;26.20;59.60
35680;DHT22;21803;53.586;10.040;2023-08-20T04:56:13;26.00;59.50
35680;DHT22;21803;53.586;10.040;2023-08-20T04:58:38;26.20;59.60
35680;DHT22;21803;53.586;10.040;2023-08-20T05:01:04;26.10;59.60
35680;DHT22;21803;53.586;10.040;2023-08-20T05:03:31;26.30;59.70
35680;DHT22;21803;53.586;10.040;2023-08-20T05:05:56;26.20;59.60
35680;DHT22;21803;53.586;10.040;2023-08-20T05:08:22;26.20;59.60
35680;DHT22;21803;53.586;10.040;2023-08-20T05:10:49;26.20;59.60
35680;DHT22;21803;53.586;10.040;2023-08-20T05:13:16;26.20;59.60
35680;DHT22;21803;53.586;10.040;2023-08-20T05:15:42;26.20;59.60
35680;DHT22;21803;53.586;10.040;2023-08-20T05:18:13;26.10;59.60
35680;DHT22;21803;53.586;10.040;2023-08-20T05:20:40;26.20;59.60
35680;DHT22;21803;53.586;10.040;2023-08-20T05:23:05;26.20;59.70
35680;DHT22;21803;53.586;10.040;2023-08-20T05:25:31;26.20;59.70
35680;DHT22;21803;53.586;10.040;2023-08-20T05:27:56;26.20;59.70
35680;DHT22;21803;53.586;10.040;2023-08-20T05:30:22;26.20;59.70
35680;DHT22;21803;53.586;10.040;2023-08-20T05:32:47;26.20;59.70
35680;DHT22;21803;53.586;10.040;2023-08-20T05:35:13;26.10;59.60
35680;DHT22;21803;53.586;10.040;2023-08-20T05:37:38;26.10;59.60
35680;DHT22;21803;53.586;10.040;2023-08-20T05:40:04;26.20;59.70
35680;DHT22;21803;53.586;10.040;2023-08-20T05:42:30;26.20;59.60
35680;DHT22;21803;53.586;10.040;2023-08-20T05:44:55;26.20;59.70
35680;DHT22;21803;53.586;10.040;2023-08-20T05:47:21;26.00;59.60
35680;DHT22;21803;53.586;10.040;2023-08-20T05:49:46;26.20;59.70
35680;DHT22;21803;53.586;10.040;2023-08-20T05:52:12;26.10;59.70
35680;DHT22;21803;53.586;10.040;2023-08-20T05:54:37;26.20;59.80
35680;DHT22;21803;53.586;10.040;2023-08-20T05:57:03;26.20;59.80
35680;DHT22;21803;53.586;10.040;2023-08-20T05:59:29;26.20;59.80
35680;DHT22;21803;53.586;10.040;2023-08-20T06:01:54;26.30;59.90
35680;DHT22;21803;53.586;10.040;2023-08-20T06:04:20;26.20;59.90
35680;DHT22;21803;53.586;10.040;2023-08-20T06:06:46;26.20;59.90
35680;DHT22;21803;53.586;10.040;2023-08-20T06:09:11;26.20;59.90
35680;DHT22;21803;53.586;10.040;2023-08-20T06:11:37;26.20;60.00
35680;DHT22;21803;53.586;10.040;2023-08-20T06:14:02;26.30;60.10
35680;DHT22;21803;53.586;10.040;2023-08-20T06:16:28;26.20;60.10
35680;DHT22;21803;53.586;10.040;2023-08-20T06:18:55;26.20;60.10
35680;DHT22;21803;53.586;10.040;2023-08-20T06:21:20;26.30;60.00
35680;DHT22;21803;53.586;10.040;2023-08-20T06:23:46;26.30;60.00
35680;DHT22;21803;53.586;10.040;2023-08-20T06:26:11;26.30;59.90
35680;DHT22;21803;53.586;10.040;2023-08-20T06:28:37;26.30;59.90
35680;DHT22;21803;53.586;10.040;2023-08-20T06:31:02;26.30;59.90
35680;DHT22;21803;53.586;10.040;2023-08-20T06:33:28;26.30;59.90
35680;DHT22;21803;53.586;10.040;2023-08-20T06:35:54;26.40;60.00
35680;DHT22;21803;53.586;10.040;2023-08-20T06:38:19;26.40;60.00
35680;DHT22;21803;53.586;10.040;2023-08-20T06:40:45;26.30;59.80
35680;DHT22;21803;53.586;10.040;2023-08-20T06:43:10;26.30;59.80
35680;DHT22;21803;53.586;10.040;2023-08-20T06:45:36;26.40;59.90
35680;DHT22;21803;53.586;10.040;2023-08-20T06:48:01;26.40;59.90
35680;DHT22;21803;53.586;10.040;2023-08-20T06:50:27;26.30;59.80
35680;DHT22;21803;53.586;10.040;2023-08-20T06:52:52;26.40;60.00
35680;DHT22;21803;53.586;10.040;2023-08-20T06:55:18;26.30;59.90
35680;DHT22;21803;53.586;10.040;2023-08-20T06:57:43;26.30;59.90
35680;DHT22;21803;53.586;10.040;2023-08-20T07:00:09;26.40;60.00
35680;DHT22;21803;53.586;10.040;2023-08-20T07:02:35;26.40;60.00
35680;DHT22;21803;53.586;10.040;2023-08-20T07:05:00;26.40;60.00
35680;DHT22;21803;53.586;10.040;2023-08-20T07:07:27;26.30;60.00
35680;DHT22;21803;53.586;10.040;2023-08-20T07:09:52;26.20;59.90
35680;DHT22;21803;53.586;10.040;2023-08-20T07:12:18;26.40;60.00
35680;DHT22;21803;53.586;10.040;2023-08-20T07:14:43;26.40;60.00
35680;DHT22;21803;53.586;10.040;2023-08-20T07:17:09;26.40;59.90
35680;DHT22;21803;53.586;10.040;2023-08-20T07:19:36;26.40;59.90
35680;DHT22;21803;53.586;10.040;2023-08-20T07:22:02;26.40;59.90
35680;DHT22;21803;53.586;10.040;2023-08-20T07:24:27;26.40;59.80
35680;DHT22;21803;53.586;10.040;2023-08-20T07:26:54;26.40;59.80
35680;DHT22;21803;53.586;10.040;2023-08-20T07:29:25;26.30;59.70
35680;DHT22;21803;53.586;10.040;2023-08-20T07:31:51;26.40;59.80
35680;DHT22;21803;53.586;10.040;2023-08-20T07:34:16;26.30;59.60
35680;DHT22;21803;53.586;10.040;2023-08-20T07:36:42;26.40;59.70
35680;DHT22;21803;53.586;10.040;2023-08-20T07:39:07;26.40;59.70
35680;DHT22;21803;53.586;10.040;2023-08-20T07:41:34;26.40;59.60
35680;DHT22;21803;53.586;10.040;2023-08-20T07:44:00;26.50;59.70
35680;DHT22;21803;53.586;10.040;2023-08-20T07:46:25;26.40;59.70
35680;DHT22;21803;53.586;10.040;2023-08-20T07:48:51;26.40;59.70
35680;DHT22;21803;53.586;10.040;2023-08-20T07:51:16;26.40;59.70
35680;DHT22;21803;53.586;10.040;2023-08-20T07:53:42;26.40;59.70
35680;DHT22;21803;53.586;10.040;2023-08-20T07:56:07;26.20;59.60
35680;DHT22;21803;53.586;10.040;2023-08-20T07:58:34;26.20;59.60
35680;DHT22;21803;53.586;10.040;2023-08-20T08:00:59;26.40;59.70
35680;DHT22;21803;53.586;10.040;2023-08-20T08:03:26;26.40;60.30
35680;DHT22;21803;53.586;10.040;2023-08-20T08:05:52;26.40;59.60
35680;DHT22;21803;53.586;10.040;2023-08-20T08:08:21;26.40;59.60
35680;DHT22;21803;53.586;10.040;2023-08-20T08:10:46;26.40;59.60
35680;DHT22;21803;53.586;10.040;2023-08-20T08:13:17;26.40;59.60
35680;DHT22;21803;53.586;10.040;2023-08-20T08:15:43;26.40;59.60
35680;DHT22;21803;53.586;10.040;2023-08-20T08:18:09;26.40;59.60
35680;DHT22;21803;53.586;10.040;2023-08-20T08:20:34;26.40;59.50
35680;DHT22;21803;53.586;10.040;2023-08-20T08:23:00;26.40;59.60
35680;DHT22;21803;53.586;10.040;2023-08-20T08:25:26;26.30;60.10
35680;DHT22;21803;53.586;10.040;2023-08-20T08:27:52;26.40;59.60
35680;DHT22;21803;53.586;10.040;2023-08-20T08:30:17;26.40;59.60
35680;DHT22;21803;53.586;10.040;2023-08-20T08:32:43;26.40;59.50
35680;DHT22;21803;53.586;10.040;2023-08-20T08:35:08;26.40;59.50
35680;DHT22;21803;53.586;10.040;2023-08-20T08:37:34;26.30;59.50
35680;DHT22;21803;53.586;10.040;2023-08-20T08:40:00;26.40;59.60
35680;DHT22;21803;53.586;10.040;2023-08-20T08:42:25;26.30;59.50
35680;DHT22;21803;53.586;10.040;2023-08-20T08:44:51;26.40;59.60
35680;DHT22;21803;53.586;10.040;2023-08-20T08:47:21;26.40;59.60
35680;DHT22;21803;53.586;10.040;2023-08-20T08:49:48;26.30;59.50
35680;DHT22;21803;53.586;10.040;2023-08-20T08:52:13;26.40;59.50
35680;DHT22;21803;53.586;10.040;2023-08-20T08:54:39;26.40;59.50
35680;DHT22;21803;53.586;10.040;2023-08-20T08:57:05;26.30;59.50
35680;DHT22;21803;53.586;10.040;2023-08-20T08:59:31;26.40;59.60
35680;DHT22;21803;53.586;10.040;2023-08-20T09:01:57;26.40;59.60
35680;DHT22;21803;53.586;10.040;2023-08-20T09:04:23;26.30;59.50
35680;DHT22;21803;53.586;10.040;2023-08-20T09:06:53;26.30;59.40
35680;DHT22;21803;53.586;10.040;2023-08-20T09:09:21;26.50;59.50
35680;DHT22;21803;53.586;10.040;2023-08-20T09:11:48;26.30;59.30
35680;DHT22;21803;53.586;10.040;2023-08-20T09:14:30;26.50;59.40
35680;DHT22;21803;53.586;10.040;2023-08-20T09:17:01;26.30;59.20
35680;DHT22;21803;53.586;10.040;2023-08-20T09:19:36;26.20;59.10
35680;DHT22;21803;53.586;10.040;2023-08-20T09:22:02;26.40;59.20
35680;DHT22;21803;53.586;10.040;2023-08-20T09:24:40;26.30;59.10
35680;DHT22;21803;53.586;10.040;2023-08-20T09:27:07;26.30;59.10
35680;DHT22;21803;53.586;10.040;2023-08-20T09:29:43;26.40;59.10
35680;DHT22;21803;53.586;10.040;2023-08-20T09:32:23;26.30;59.10
35680;DHT22;21803;53.586;10.040;2023-08-20T09:34:49;26.30;59.10
35680;DHT22;21803;53.586;10.040;2023-08-20T09:37:17;26.30;59.10
35680;DHT22;21803;53.586;10.040;2023-08-20T09:39:43;26.40;59.20
35680;DHT22;21803;53.586;10.040;2023-08-20T09:42:09;26.30;59.20
35680;DHT22;21803;53.586;10.040;2023-08-20T09:44:38;26.30;59.20
35680;DHT22;21803;53.586;10.040;2023-08-20T09:49:40;26.30;59.20
35680;DHT22;21803;53.586;10.040;2023-08-20T09:52:08;26.40;59.30
35680;DHT22;21803;53.586;10.040;2023-08-20T09:57:35;26.30;59.80
35680;DHT22;21803;53.586;10.040;2023-08-20T10:00:01;26.40;59.30
35680;DHT22;21803;53.586;10.040;2023-08-20T10:02:28;26.30;59.20
35680;DHT22;21803;53.586;10.040;2023-08-20T10:04:54;26.40;59.30
35680;DHT22;21803;53.586;10.040;2023-08-20T10:07:20;26.30;59.20
35680;DHT22;21803;53.586;10.040;2023-08-20T10:09:49;26.40;59.30
35680;DHT22;21803;53.586;10.040;2023-08-20T10:12:17;26.30;59.20
35680;DHT22;21803;53.586;10.040;2023-08-20T10:14:43;26.40;59.30
35680;DHT22;21803;53.586;10.040;2023-08-20T10:17:09;26.40;59.30
35680;DHT22;21803;53.586;10.040;2023-08-20T10:19:37;26.30;59.30
35680;DHT22;21803;53.586;10.040;2023-08-20T10:22:04;26.30;59.20
35680;DHT22;21803;53.586;10.040;2023-08-20T10:24:49;26.30;59.30
35680;DHT22;21803;53.586;10.040;2023-08-20T10:27:26;26.30;59.20
35680;DHT22;21803;53.586;10.040;2023-08-20T10:29:55;26.30;59.20
35680;DHT22;21803;53.586;10.040;2023-08-20T10:32:44;26.30;59.20
35680;DHT22;21803;53.586;10.040;2023-08-20T10:35:10;26.20;59.80
35680;DHT22;21803;53.586;10.040;2023-08-20T10:37:36;26.40;59.30
35680;DHT22;21803;53.586;10.040;2023-08-20T10:40:07;26.30;59.20
35680;DHT22;21803;53.586;10.040;2023-08-20T10:42:41;26.30;59.20
35680;DHT22;21803;53.586;10.040;2023-08-20T10:45:08;26.30;59.20
35680;DHT22;21803;53.586;10.040;2023-08-20T10:47:44;26.20;59.10
35680;DHT22;21803;53.586;10.040;2023-08-20T10:50:11;26.40;59.20
35680;DHT22;21803;53.586;10.040;2023-08-20T10:52:40;26.40;59.20
35680;DHT22;21803;53.586;10.040;2023-08-20T10:55:08;26.30;59.10
35680;DHT22;21803;53.586;10.040;2023-08-20T10:57:35;26.40;59.10
35680;DHT22;21803;53.586;10.040;2023-08-20T11:00:03;26.40;59.20
35680;DHT22;21803;53.586;10.040;2023-08-20T11:02:35;26.40;59.10
35680;DHT22;21803;53.586;10.040;2023-08-20T11:05:02;26.40;59.10
35680;DHT22;21803;53.586;10.040;2023-08-20T11:07:28;26.30;59.00
35680;DHT22;21803;53.586;10.040;2023-08-20T11:09:57;26.40;59.10
35680;DHT22;21803;53.586;10.040;2023-08-20T11:12:22;26.30;59.00
35680;DHT22;21803;53.586;10.040;2023-08-20T11:14:48;26.30;59.00
35680;DHT22;21803;53.586;10.040;2023-08-20T11:17:14;26.30;59.00
35680;DHT22;21803;53.586;10.040;2023-08-20T11:19:40;26.50;59.20
35680;DHT22;21803;53.586;10.040;2023-08-20T11:22:05;26.30;59.00
35680;DHT22;21803;53.586;10.040;2023-08-20T11:24:31;26.40;59.60
35680;DHT22;21803;53.586;10.040;2023-08-20T11:26:57;26.40;59.10
35680;DHT22;21803;53.586;10.040;2023-08-20T11:29:25;26.30;59.00
35680;DHT22;21803;53.586;10.040;2023-08-20T11:31:52;26.40;59.10
35680;DHT22;21803;53.586;10.040;2023-08-20T11:34:18;26.40;59.00
35680;DHT22;21803;53.586;10.040;2023-08-20T11:36:44;26.40;59.00
35680;DHT22;21803;53.586;10.040;2023-08-20T11:39:09;26.40;59.00
35680;DHT22;21803;53.586;10.040;2023-08-20T11:41:36;26.40;59.00
35680;DHT22;21803;53.586;10.040;2023-08-20T11:44:02;26.40;58.90
35680;DHT22;21803;53.586;10.040;2023-08-20T11:46:28;26.40;58.90
35680;DHT22;21803;53.586;10.040;2023-08-20T11:49:07;26.40;58.90
35680;DHT22;21803;53.586;10.040;2023-08-20T11:51:43;26.40;58.80
35680;DHT22;21803;53.586;10.040;2023-08-20T11:54:13;26.40;58.80
35680;DHT22;21803;53.586;10.040;2023-08-20T11:56:49;26.40;58.80
35680;DHT22;21803;53.586;10.040;2023-08-20T11:59:16;26.40;58.80
35680;DHT22;21803;53.586;10.040;2023-08-20T12:01:42;26.40;58.70
35680;DHT22;21803;53.586;10.040;2023-08-20T12:04:09;26.40;58.70
35680;DHT22;21803;53.586;10.040;2023-08-20T12:06:36;26.40;58.70
35680;DHT22;21803;53.586;10.040;2023-08-20T12:09:21;26.30;58.60
35680;DHT22;21803;53.586;10.040;2023-08-20T12:11:52;26.40;58.70
35680;DHT22;21803;53.586;10.040;2023-08-20T12:14:21;26.40;58.60
35680;DHT22;21803;53.586;10.040;2023-08-20T12:16:47;26.30;58.60
35680;DHT22;21803;53.586;10.040;2023-08-20T12:19:13;26.40;58.70
35680;DHT22;21803;53.586;10.040;2023-08-20T12:21:39;26.40;58.70
35680;DHT22;21803;53.586;10.040;2023-08-20T12:24:06;26.40;58.70
35680;DHT22;21803;53.586;10.040;2023-08-20T12:26:31;26.40;58.80
35680;DHT22;21803;53.586;10.040;2023-08-20T12:28:57;26.40;58.70
35680;DHT22;21803;53.586;10.040;2023-08-20T12:31:23;26.40;58.60
35680;DHT22;21803;53.586;10.040;2023-08-20T12:33:48;26.40;58.60
35680;DHT22;21803;53.586;10.040;2023-08-20T12:36:14;26.40;58.60
35680;DHT22;21803;53.586;10.040;2023-08-20T12:38:39;26.50;58.60
35680;DHT22;21803;53.586;10.040;2023-08-20T12:41:06;26.50;58.50
35680;DHT22;21803;53.586;10.040;2023-08-20T12:43:32;26.40;58.40
35680;DHT22;21803;53.586;10.040;2023-08-20T12:45:57;26.40;58.40
35680;DHT22;21803;53.586;10.040;2023-08-20T12:48:23;26.30;58.30
35680;DHT22;21803;53.586;10.040;2023-08-20T12:50:49;26.40;58.40
35680;DHT22;21803;53.586;10.040;2023-08-20T12:53:14;26.40;58.40
35680;DHT22;21803;53.586;10.040;2023-08-20T12:55:40;26.40;58.40
35680;DHT22;21803;53.586;10.040;2023-08-20T12:58:05;26.50;58.50
35680;DHT22;21803;53.586;10.040;2023-08-20T13:00:31;26.40;58.40
35680;DHT22;21803;53.586;10.040;2023-08-20T13:02:57;26.40;58.30
35680;DHT22;21803;53.586;10.040;2023-08-20T13:05:23;26.40;58.30
35680;DHT22;21803;53.586;10.040;2023-08-20T13:07:50;26.40;58.40
35680;DHT22;21803;53.586;10.040;2023-08-20T13:10:16;26.40;58.30
35680;DHT22;21803;53.586;10.040;2023-08-20T13:12:49;26.40;58.30
35680;DHT22;21803;53.586;10.040;2023-08-20T13:15:18;26.40;58.30
35680;DHT22;21803;53.586;10.040;2023-08-20T13:17:46;26.40;58.30
35680;DHT22;21803;53.586;10.040;2023-08-20T13:20:12;26.40;58.30
35680;DHT22;21803;53.586;10.040;2023-08-20T13:22:38;26.40;58.30
35680;DHT22;21803;53.586;10.040;2023-08-20T13:25:04;26.40;58.30
35680;DHT22;21803;53.586;10.040;2023-08-20T13:27:30;26.40;58.30
35680;DHT22;21803;53.586;10.040;2023-08-20T13:29:56;26.40;58.30
35680;DHT22;21803;53.586;10.040;2023-08-20T13:32:22;26.40;58.30
35680;DHT22;21803;53.586;10.040;2023-08-20T13:34:47;26.40;58.20
35680;DHT22;21803;53.586;10.040;2023-08-20T13:37:13;26.40;58.10
35680;DHT22;21803;53.586;10.040;2023-08-20T13:39:38;26.40;58.10
35680;DHT22;21803;53.586;10.040;2023-08-20T13:42:04;26.40;58.10
35680;DHT22;21803;53.586;10.040;2023-08-20T13:44:29;26.40;58.10
35680;DHT22;21803;53.586;10.040;2023-08-20T13:46:55;26.50;58.20
35680;DHT22;21803;53.586;10.040;2023-08-20T13:49:20;26.40;58.10
35680;DHT22;21803;53.586;10.040;2023-08-20T13:51:46;26.50;58.10
35680;DHT22;21803;53.586;10.040;2023-08-20T13:54:11;26.40;58.00
35680;DHT22;21803;53.586;10.040;2023-08-20T13:56:37;26.40;58.00
35680;DHT22;21803;53.586;10.040;2023-08-20T13:59:02;26.40;58.00
35680;DHT22;21803;53.586;10.040;2023-08-20T14:01:28;26.40;58.00
35680;DHT22;21803;53.586;10.040;2023-08-20T14:03:53;26.50;58.10
35680;DHT22;21803;53.586;10.040;2023-08-20T14:06:19;26.40;58.00
35680;DHT22;21803;53.586;10.040;2023-08-20T14:08:45;26.20;57.80
35680;DHT22;21803;53.586;10.040;2023-08-20T14:11:10;26.40;58.00
35680;DHT22;21803;53.586;10.040;2023-08-20T14:13:36;26.40;57.90
35680;DHT22;21803;53.586;10.040;2023-08-20T14:16:01;26.40;57.90
35680;DHT22;21803;53.586;10.040;2023-08-20T14:18:27;26.40;58.00
35680;DHT22;21803;53.586;10.040;2023-08-20T14:20:53;26.40;57.90
35680;DHT22;21803;53.586;10.040;2023-08-20T14:23:19;27.90;58.80
35680;DHT22;21803;53.586;10.040;2023-08-20T14:25:44;26.40;57.90
35680;DHT22;21803;53.586;10.040;2023-08-20T14:28:10;26.40;57.90
35680;DHT22;21803;53.586;10.040;2023-08-20T14:30:38;26.40;57.80
35680;DHT22;21803;53.586;10.040;2023-08-20T14:33:05;26.40;57.80
35680;DHT22;21803;53.586;10.040;2023-08-20T14:35:31;26.40;57.80
35680;DHT22;21803;53.586;10.040;2023-08-20T14:37:57;26.40;57.80
35680;DHT22;21803;53.586;10.040;2023-08-20T14:40:22;26.50;57.90
35680;DHT22;21803;53.586;10.040;2023-08-20T14:42:49;26.30;57.70
35680;DHT22;21803;53.586;10.040;2023-08-20T14:45:14;26.30;57.70
35680;DHT22;21803;53.586;10.040;2023-08-20T14:47:40;26.40;57.70
35680;DHT22;21803;53.586;10.040;2023-08-20T14:50:06;26.40;57.70
35680;DHT22;21803;53.586;10.040;2023-08-20T14:52:32;26.40;57.70
35680;DHT22;21803;53.586;10.040;2023-08-20T14:54:57;26.40;57.60
35680;DHT22;21803;53.586;10.040;2023-08-20T14:57:23;26.40;57.60
35680;DHT22;21803;53.586;10.040;2023-08-20T14:59:50;26.40;57.70
35680;DHT22;21803;53.586;10.040;2023-08-20T15:02:15;26.40;57.60
35680;DHT22;21803;53.586;10.040;2023-08-20T15:04:41;26.40;57.60
35680;DHT22;21803;53.586;10.040;2023-08-20T15:07:06;26.40;57.50
35680;DHT22;21803;53.586;10.040;2023-08-20T15:09:32;26.40;57.50
35680;DHT22;21803;53.586;10.040;2023-08-20T15:11:57;26.20;57.40
35680;DHT22;21803;53.586;10.040;2023-08-20T15:14:23;26.40;57.50
35680;DHT22;21803;53.586;10.040;2023-08-20T15:16:48;26.40;57.50
35680;DHT22;21803;53.586;10.040;2023-08-20T15:19:14;26.50;57.50
35680;DHT22;21803;53.586;10.040;2023-08-20T15:21:39;26.40;57.40
35680;DHT22;21803;53.586;10.040;2023-08-20T15:24:05;26.40;57.40
35680;DHT22;21803;53.586;10.040;2023-08-20T15:26:30;26.40;57.40
35680;DHT22;21803;53.586;10.040;2023-08-20T15:28:56;26.40;57.40
35680;DHT22;21803;53.586;10.040;2023-08-20T15:31:21;26.50;57.50
35680;DHT22;21803;53.586;10.040;2023-08-20T15:33:47;26.20;57.20
35680;DHT22;21803;53.586;10.040;2023-08-20T15:36:13;26.40;57.30
35680;DHT22;21803;53.586;10.040;2023-08-20T15:38:38;26.40;57.30
35680;DHT22;21803;53.586;10.040;2023-08-20T15:41:04;26.40;57.30
35680;DHT22;21803;53.586;10.040;2023-08-20T15:43:29;26.40;57.20
35680;DHT22;21803;53.586;10.040;2023-08-20T15:45:55;26.30;57.20
35680;DHT22;21803;53.586;10.040;2023-08-20T15:48:21;26.40;57.20
35680;DHT22;21803;53.586;10.040;2023-08-20T15:50:46;26.40;57.20
35680;DHT22;21803;53.586;10.040;2023-08-20T15:53:12;26.30;57.10
35680;DHT22;21803;53.586;10.040;2023-08-20T15:55:37;26.40;57.20
35680;DHT22;21803;53.586;10.040;2023-08-20T15:58:03;26.40;57.10
35680;DHT22;21803;53.586;10.040;2023-08-20T16:00:29;26.40;57.10
35680;DHT22;21803;53.586;10.040;2023-08-20T16:02:55;27.30;57.60
35680;DHT22;21803;53.586;10.040;2023-08-20T16:05:21;26.40;57.00
35680;DHT22;21803;53.586;10.040;2023-08-20T16:07:47;26.40;57.00
35680;DHT22;21803;53.586;10.040;2023-08-20T16:10:12;26.50;57.00
35680;DHT22;21803;53.586;10.040;2023-08-20T16:12:38;26.40;57.00
35680;DHT22;21803;53.586;10.040;2023-08-20T16:15:05;26.40;56.90
35680;DHT22;21803;53.586;10.040;2023-08-20T16:17:31;26.40;56.90
35680;DHT22;21803;53.586;10.040;2023-08-20T16:19:57;26.40;56.80
35680;DHT22;21803;53.586;10.040;2023-08-20T16:22:25;26.40;56.80
35680;DHT22;21803;53.586;10.040;2023-08-20T16:24:50;26.40;56.70
35680;DHT22;21803;53.586;10.040;2023-08-20T16:27:16;26.50;56.80
35680;DHT22;21803;53.586;10.040;2023-08-20T16:29:41;26.40;56.60
35680;DHT22;21803;53.586;10.040;2023-08-20T16:32:07;26.20;56.50
35680;DHT22;21803;53.586;10.040;2023-08-20T16:34:33;26.50;56.60
35680;DHT22;21803;53.586;10.040;2023-08-20T16:36:58;26.40;56.50
35680;DHT22;21803;53.586;10.040;2023-08-20T16:39:24;26.40;56.50
35680;DHT22;21803;53.586;10.040;2023-08-20T16:41:49;26.20;56.30
35680;DHT22;21803;53.586;10.040;2023-08-20T16:44:16;26.40;56.40
35680;DHT22;21803;53.586;10.040;2023-08-20T16:46:43;26.40;56.40
35680;DHT22;21803;53.586;10.040;2023-08-20T16:49:08;26.40;56.40
35680;DHT22;21803;53.586;10.040;2023-08-20T16:51:34;26.40;56.40
35680;DHT22;21803;53.586;10.040;2023-08-20T16:53:59;26.20;56.30
35680;DHT22;21803;53.586;10.040;2023-08-20T16:56:25;26.40;56.40
35680;DHT22;21803;53.586;10.040;2023-08-20T16:58:51;26.40;56.30
35680;DHT22;21803;53.586;10.040;2023-08-20T17:01:17;26.40;56.30
35680;DHT22;21803;53.586;10.040;2023-08-20T17:03:43;26.40;56.30
35680;DHT22;21803;53.586;10.040;2023-08-20T17:06:10;26.40;56.40
35680;DHT22;21803;53.586;10.040;2023-08-20T17:08:36;26.40;56.40
35680;DHT22;21803;53.586;10.040;2023-08-20T17:11:06;26.30;56.90
35680;DHT22;21803;53.586;10.040;2023-08-20T17:13:32;26.40;56.90
35680;DHT22;21803;53.586;10.040;2023-08-20T17:15:58;26.40;56.30
35680;DHT22;21803;53.586;10.040;2023-08-20T17:18:23;26.40;56.20
35680;DHT22;21803;53.586;10.040;2023-08-20T17:20:49;26.30;56.20
35680;DHT22;21803;53.586;10.040;2023-08-20T17:23:15;26.40;56.20
35680;DHT22;21803;53.586;10.040;2023-08-20T17:25:41;26.40;56.20
35680;DHT22;21803;53.586;10.040;2023-08-20T17:28:07;26.40;56.20
35680;DHT22;21803;53.586;10.040;2023-08-20T17:30:32;26.40;56.10
35680;DHT22;21803;53.586;10.040;2023-08-20T17:32:58;26.40;56.20
35680;DHT22;21803;53.586;10.040;2023-08-20T17:35:23;26.40;56.20
35680;DHT22;21803;53.586;10.040;2023-08-20T17:37:49;26.40;56.10
35680;DHT22;21803;53.586;10.040;2023-08-20T17:40:14;26.40;56.10
35680;DHT22;21803;53.586;10.040;2023-08-20T17:42:40;26.40;56.10
35680;DHT22;21803;53.586;10.040;2023-08-20T17:45:06;26.30;56.00
35680;DHT22;21803;53.586;10.040;2023-08-20T17:47:33;26.30;56.00
35680;DHT22;21803;53.586;10.040;2023-08-20T17:49:58;26.30;56.00
35680;DHT22;21803;53.586;10.040;2023-08-20T17:52:24;26.40;56.10
35680;DHT22;21803;53.586;10.040;2023-08-20T17:54:49;26.30;56.00
35680;DHT22;21803;53.586;10.040;2023-08-20T17:57:15;26.40;56.00
35680;DHT22;21803;53.586;10.040;2023-08-20T17:59:41;26.40;56.00
35680;DHT22;21803;53.586;10.040;2023-08-20T18:02:06;26.30;56.00
35680;DHT22;21803;53.586;10.040;2023-08-20T18:04:32;26.40;56.00
35680;DHT22;21803;53.586;10.040;2023-08-20T18:06:57;26.40;56.00
35680;DHT22;21803;53.586;10.040;2023-08-20T18:09:23;26.50;56.10
35680;DHT22;21803;53.586;10.040;2023-08-20T18:11:48;26.30;55.90
35680;DHT22;21803;53.586;10.040;2023-08-20T18:14:14;26.30;55.90
35680;DHT22;21803;53.586;10.040;2023-08-20T18:16:39;26.40;55.90
35680;DHT22;21803;53.586;10.040;2023-08-20T18:19:07;26.40;56.00
35680;DHT22;21803;53.586;10.040;2023-08-20T18:21:32;26.30;55.70
35680;DHT22;21803;53.586;10.040;2023-08-20T18:23:58;26.30;55.50
35680;DHT22;21803;53.586;10.040;2023-08-20T18:26:24;26.30;55.50
35680;DHT22;21803;53.586;10.040;2023-08-20T18:28:49;26.30;55.60
35680;DHT22;21803;53.586;10.040;2023-08-20T18:31:15;26.30;55.20
35680;DHT22;21803;53.586;10.040;2023-08-20T18:33:40;26.10;54.90
35680;DHT22;21803;53.586;10.040;2023-08-20T18:36:07;26.30;55.00
35680;DHT22;21803;53.586;10.040;2023-08-20T18:41:00;26.40;55.10
35680;DHT22;21803;53.586;10.040;2023-08-20T18:43:26;26.40;55.10
35680;DHT22;21803;53.586;10.040;2023-08-20T18:45:52;26.20;54.80
35680;DHT22;21803;53.586;10.040;2023-08-20T18:48:17;26.20;54.80
35680;DHT22;21803;53.586;10.040;2023-08-20T18:50:43;26.20;54.90
35680;DHT22;21803;53.586;10.040;2023-08-20T18:53:08;26.10;54.80
35680;DHT22;21803;53.586;10.040;2023-08-20T18:55:34;26.30;55.00
35680;DHT22;21803;53.586;10.040;2023-08-20T18:58:00;26.30;55.00
35680;DHT22;21803;53.586;10.040;2023-08-20T19:00:25;26.30;54.90
35680;DHT22;21803;53.586;10.040;2023-08-20T19:02:52;26.30;54.90
35680;DHT22;21803;53.586;10.040;2023-08-20T19:05:17;26.30;54.80
35680;DHT22;21803;53.586;10.040;2023-08-20T19:07:43;26.30;54.80
35680;DHT22;21803;53.586;10.040;2023-08-20T19:10:16;26.30;54.80
35680;DHT22;21803;53.586;10.040;2023-08-20T19:12:41;25.40;54.20
35680;DHT22;21803;53.586;10.040;2023-08-20T19:15:08;26.30;54.70
35680;DHT22;21803;53.586;10.040;2023-08-20T19:17:34;26.30;54.70
35680;DHT22;21803;53.586;10.040;2023-08-20T19:20:00;26.30;54.60